sensor_id;sensor_type;location;lat;lon;timestamp;P1;durP1;ratioP1;P2;durP2;ratioP2
2538;SDS011;1280;49.760;9.664;2022-10-22T00:00:58;6.87;;;2.57;;
2538;SDS011;1280;49.760;9.664;2022-10-22T00:03:26;7.10;;;2.73;;
2538;SDS011;1280;49.760;9.664;2022-10-22T00:05:54;6.83;;;2.43;;
2538;SDS011;1280;49.760;9.664;2022-10-22T00:08:23;6.23;;;2.87;;
2538;SDS011;1280;49.760;9.664;2022-10-22T00:10:51;8.87;;;2.60;;
2538;SDS011;1280;49.760;9.664;2022-10-22T00:13:20;5.80;;;2.40;;
2538;SDS011;1280;49.760;9.664;2022-10-22T00:15:48;6.17;;;2.33;;
2538;SDS011;1280;49.760;9.664;2022-10-22T00:18:16;5.17;;;2.20;;
2538;SDS011;1280;49.760;9.664;2022-10-22T00:20:44;4.73;;;2.17;;
2538;SDS011;1280;49.760;9.664;2022-10-22T00:23:12;7.20;;;2.33;;
2538;SDS011;1280;49.760;9.664;2022-10-22T00:25:41;5.53;;;3.00;;
2538;SDS011;1280;49.760;9.664;2022-10-22T00:28:09;5.70;;;2.40;;
2538;SDS011;1280;49.760;9.664;2022-10-22T00:30:37;7.40;;;2.87;;
2538;SDS011;1280;49.760;9.664;2022-10-22T00:33:05;6.80;;;2.60;;
2538;SDS011;1280;49.760;9.664;2022-10-22T00:35:33;4.97;;;2.57;;
2538;SDS011;1280;49.760;9.664;2022-10-22T00:38:01;6.00;;;2.30;;
2538;SDS011;1280;49.760;9.664;2022-10-22T00:40:29;6.40;;;3.13;;
2538;SDS011;1280;49.760;9.664;2022-10-22T00:42:59;17.07;;;7.33;;
2538;SDS011;1280;49.760;9.664;2022-10-22T00:45:27;8.93;;;4.33;;
2538;SDS011;1280;49.760;9.664;2022-10-22T00:47:56;5.80;;;3.27;;
2538;SDS011;1280;49.760;9.664;2022-10-22T00:50:29;7.60;;;3.93;;
2538;SDS011;1280;49.760;9.664;2022-10-22T00:53:00;5.73;;;3.07;;
2538;SDS011;1280;49.760;9.664;2022-10-22T00:55:30;7.20;;;3.40;;
2538;SDS011;1280;49.760;9.664;2022-10-22T00:58:01;8.47;;;3.33;;
2538;SDS011;1280;49.760;9.664;2022-10-22T01:00:30;7.37;;;2.97;;
2538;SDS011;1280;49.760;9.664;2022-10-22T01:02:58;5.63;;;3.07;;
2538;SDS011;1280;49.760;9.664;2022-10-22T01:05:27;7.23;;;3.60;;
2538;SDS011;1280;49.760;9.664;2022-10-22T01:07:56;15.60;;;3.40;;
2538;SDS011;1280;49.760;9.664;2022-10-22T01:10:31;7.50;;;3.20;;
2538;SDS011;1280;49.760;9.664;2022-10-22T01:13:10;7.63;;;3.40;;
2538;SDS011;1280;49.760;9.664;2022-10-22T01:15:53;8.00;;;4.00;;
2538;SDS011;1280;49.760;9.664;2022-10-22T01:18:28;7.20;;;3.50;;
2538;SDS011;1280;49.760;9.664;2022-10-22T01:21:05;8.17;;;4.00;;
2538;SDS011;1280;49.760;9.664;2022-10-22T01:23:45;7.63;;;3.17;;
2538;SDS011;1280;49.760;9.664;2022-10-22T01:26:33;7.00;;;3.17;;
2538;SDS011;1280;49.760;9.664;2022-10-22T01:29:12;6.33;;;2.73;;
2538;SDS011;1280;49.760;9.664;2022-10-22T01:31:45;6.43;;;2.57;;
2538;SDS011;1280;49.760;9.664;2022-10-22T01:34:17;6.70;;;2.87;;
2538;SDS011;1280;49.760;9.664;2022-10-22T01:36:46;6.70;;;2.60;;
2538;SDS011;1280;49.760;9.664;2022-10-22T01:39:17;7.00;;;3.00;;
2538;SDS011;1280;49.760;9.664;2022-10-22T01:41:46;6.30;;;3.17;;
2538;SDS011;1280;49.760;9.664;2022-10-22T01:44:26;5.60;;;2.73;;
2538;SDS011;1280;49.760;9.664;2022-10-22T01:46:57;6.83;;;3.43;;
2538;SDS011;1280;49.760;9.664;2022-10-22T01:49:37;5.63;;;2.47;;
2538;SDS011;1280;49.760;9.664;2022-10-22T01:52:19;5.17;;;2.70;;
2538;SDS011;1280;49.760;9.664;2022-10-22T01:54:56;14.67;;;3.47;;
2538;SDS011;1280;49.760;9.664;2022-10-22T01:57:41;7.40;;;3.33;;
2538;SDS011;1280;49.760;9.664;2022-10-22T02:00:18;7.00;;;2.93;;
2538;SDS011;1280;49.760;9.664;2022-10-22T02:02:47;6.13;;;3.23;;
2538;SDS011;1280;49.760;9.664;2022-10-22T02:05:23;7.30;;;3.43;;
2538;SDS011;1280;49.760;9.664;2022-10-22T02:08:00;7.40;;;3.30;;
2538;SDS011;1280;49.760;9.664;2022-10-22T02:10:32;6.70;;;3.30;;
2538;SDS011;1280;49.760;9.664;2022-10-22T02:13:02;8.63;;;3.97;;
2538;SDS011;1280;49.760;9.664;2022-10-22T02:15:36;6.27;;;2.27;;
2538;SDS011;1280;49.760;9.664;2022-10-22T02:18:06;6.60;;;2.73;;
2538;SDS011;1280;49.760;9.664;2022-10-22T02:20:36;5.60;;;2.70;;
2538;SDS011;1280;49.760;9.664;2022-10-22T02:23:07;12.03;;;2.57;;
2538;SDS011;1280;49.760;9.664;2022-10-22T02:25:37;6.50;;;2.97;;
2538;SDS011;1280;49.760;9.664;2022-10-22T02:28:10;6.40;;;3.03;;
2538;SDS011;1280;49.760;9.664;2022-10-22T02:30:47;5.90;;;2.93;;
2538;SDS011;1280;49.760;9.664;2022-10-22T02:33:20;5.80;;;2.57;;
2538;SDS011;1280;49.760;9.664;2022-10-22T02:35:50;7.03;;;2.50;;
2538;SDS011;1280;49.760;9.664;2022-10-22T02:38:19;12.60;;;2.87;;
2538;SDS011;1280;49.760;9.664;2022-10-22T02:40:48;5.10;;;2.10;;
2538;SDS011;1280;49.760;9.664;2022-10-22T02:43:16;7.20;;;2.57;;
2538;SDS011;1280;49.760;9.664;2022-10-22T02:45:44;4.40;;;1.87;;
2538;SDS011;1280;49.760;9.664;2022-10-22T02:48:14;8.17;;;2.30;;
2538;SDS011;1280;49.760;9.664;2022-10-22T02:50:42;5.60;;;2.57;;
2538;SDS011;1280;49.760;9.664;2022-10-22T02:53:10;6.53;;;2.27;;
2538;SDS011;1280;49.760;9.664;2022-10-22T02:55:38;5.20;;;1.90;;
2538;SDS011;1280;49.760;9.664;2022-10-22T02:58:05;4.00;;;1.67;;
2538;SDS011;1280;49.760;9.664;2022-10-22T03:00:33;5.93;;;1.40;;
2538;SDS011;1280;49.760;9.664;2022-10-22T03:03:03;6.10;;;3.00;;
2538;SDS011;1280;49.760;9.664;2022-10-22T03:05:31;4.07;;;1.67;;
2538;SDS011;1280;49.760;9.664;2022-10-22T03:07:59;6.00;;;1.97;;
2538;SDS011;1280;49.760;9.664;2022-10-22T03:10:26;4.83;;;1.93;;
2538;SDS011;1280;49.760;9.664;2022-10-22T03:12:54;4.90;;;1.60;;
2538;SDS011;1280;49.760;9.664;2022-10-22T03:15:23;6.03;;;1.60;;
2538;SDS011;1280;49.760;9.664;2022-10-22T03:17:50;3.73;;;1.17;;
2538;SDS011;1280;49.760;9.664;2022-10-22T03:20:20;3.77;;;1.00;;
2538;SDS011;1280;49.760;9.664;2022-10-22T03:22:48;5.87;;;1.20;;
2538;SDS011;1280;49.760;9.664;2022-10-22T03:25:16;4.13;;;1.30;;
2538;SDS011;1280;49.760;9.664;2022-10-22T03:27:47;6.60;;;1.57;;
2538;SDS011;1280;49.760;9.664;2022-10-22T03:30:18;4.00;;;1.60;;
2538;SDS011;1280;49.760;9.664;2022-10-22T03:32:46;7.03;;;1.70;;
2538;SDS011;1280;49.760;9.664;2022-10-22T03:35:14;4.00;;;1.53;;
2538;SDS011;1280;49.760;9.664;2022-10-22T03:37:44;3.60;;;1.33;;
2538;SDS011;1280;49.760;9.664;2022-10-22T03:40:12;3.67;;;1.30;;
2538;SDS011;1280;49.760;9.664;2022-10-22T03:42:40;3.90;;;1.50;;
2538;SDS011;1280;49.760;9.664;2022-10-22T03:45:09;4.53;;;1.63;;
2538;SDS011;1280;49.760;9.664;2022-10-22T03:47:37;4.97;;;1.50;;
2538;SDS011;1280;49.760;9.664;2022-10-22T03:50:06;6.57;;;1.57;;
2538;SDS011;1280;49.760;9.664;2022-10-22T03:52:35;4.67;;;1.70;;
2538;SDS011;1280;49.760;9.664;2022-10-22T03:55:05;4.87;;;1.60;;
2538;SDS011;1280;49.760;9.664;2022-10-22T03:57:34;4.07;;;1.47;;
2538;SDS011;1280;49.760;9.664;2022-10-22T04:00:03;3.83;;;1.50;;
2538;SDS011;1280;49.760;9.664;2022-10-22T04:02:32;4.53;;;1.27;;
2538;SDS011;1280;49.760;9.664;2022-10-22T04:05:00;4.17;;;1.70;;
2538;SDS011;1280;49.760;9.664;2022-10-22T04:07:28;5.43;;;2.10;;
2538;SDS011;1280;49.760;9.664;2022-10-22T04:09:56;5.20;;;1.50;;
2538;SDS011;1280;49.760;9.664;2022-10-22T04:12:26;4.47;;;1.90;;
2538;SDS011;1280;49.760;9.664;2022-10-22T04:14:54;3.67;;;1.40;;
2538;SDS011;1280;49.760;9.664;2022-10-22T04:17:21;11.50;;;2.27;;
2538;SDS011;1280;49.760;9.664;2022-10-22T04:19:50;4.53;;;1.80;;
2538;SDS011;1280;49.760;9.664;2022-10-22T04:22:18;4.50;;;1.77;;
2538;SDS011;1280;49.760;9.664;2022-10-22T04:24:46;3.90;;;1.70;;
2538;SDS011;1280;49.760;9.664;2022-10-22T04:27:13;4.10;;;1.60;;
2538;SDS011;1280;49.760;9.664;2022-10-22T04:29:43;4.80;;;2.33;;
2538;SDS011;1280;49.760;9.664;2022-10-22T04:32:11;5.30;;;1.43;;
2538;SDS011;1280;49.760;9.664;2022-10-22T04:34:39;7.17;;;2.10;;
2538;SDS011;1280;49.760;9.664;2022-10-22T04:37:07;4.03;;;2.00;;
2538;SDS011;1280;49.760;9.664;2022-10-22T04:39:35;4.90;;;2.20;;
2538;SDS011;1280;49.760;9.664;2022-10-22T04:42:03;4.07;;;1.90;;
2538;SDS011;1280;49.760;9.664;2022-10-22T04:44:31;4.43;;;2.00;;
2538;SDS011;1280;49.760;9.664;2022-10-22T04:47:00;4.43;;;2.27;;
2538;SDS011;1280;49.760;9.664;2022-10-22T04:49:28;6.30;;;2.20;;
2538;SDS011;1280;49.760;9.664;2022-10-22T04:51:56;4.20;;;1.77;;
2538;SDS011;1280;49.760;9.664;2022-10-22T04:54:24;3.50;;;1.60;;
2538;SDS011;1280;49.760;9.664;2022-10-22T04:56:58;5.47;;;2.20;;
2538;SDS011;1280;49.760;9.664;2022-10-22T04:59:26;7.07;;;1.90;;
2538;SDS011;1280;49.760;9.664;2022-10-22T05:01:54;9.37;;;1.83;;
2538;SDS011;1280;49.760;9.664;2022-10-22T05:04:23;4.33;;;2.10;;
2538;SDS011;1280;49.760;9.664;2022-10-22T05:06:51;6.00;;;2.63;;
2538;SDS011;1280;49.760;9.664;2022-10-22T05:09:19;7.23;;;2.10;;
2538;SDS011;1280;49.760;9.664;2022-10-22T05:11:48;3.93;;;1.67;;
2538;SDS011;1280;49.760;9.664;2022-10-22T05:14:18;5.20;;;2.00;;
2538;SDS011;1280;49.760;9.664;2022-10-22T05:16:47;4.63;;;2.17;;
2538;SDS011;1280;49.760;9.664;2022-10-22T05:19:16;5.10;;;1.97;;
2538;SDS011;1280;49.760;9.664;2022-10-22T05:21:47;4.40;;;1.80;;
2538;SDS011;1280;49.760;9.664;2022-10-22T05:24:15;4.53;;;1.73;;
2538;SDS011;1280;49.760;9.664;2022-10-22T05:26:43;5.93;;;2.20;;
2538;SDS011;1280;49.760;9.664;2022-10-22T05:29:11;3.90;;;1.70;;
2538;SDS011;1280;49.760;9.664;2022-10-22T05:31:39;4.23;;;1.87;;
2538;SDS011;1280;49.760;9.664;2022-10-22T05:34:07;5.47;;;1.70;;
2538;SDS011;1280;49.760;9.664;2022-10-22T05:36:35;6.13;;;2.00;;
2538;SDS011;1280;49.760;9.664;2022-10-22T05:39:04;5.10;;;1.93;;
2538;SDS011;1280;49.760;9.664;2022-10-22T05:41:33;3.60;;;1.73;;
2538;SDS011;1280;49.760;9.664;2022-10-22T05:44:02;4.57;;;2.40;;
2538;SDS011;1280;49.760;9.664;2022-10-22T05:46:32;3.90;;;1.57;;
2538;SDS011;1280;49.760;9.664;2022-10-22T05:49:02;7.17;;;1.90;;
2538;SDS011;1280;49.760;9.664;2022-10-22T05:51:32;4.50;;;1.70;;
2538;SDS011;1280;49.760;9.664;2022-10-22T05:54:04;3.70;;;1.63;;
2538;SDS011;1280;49.760;9.664;2022-10-22T05:56:36;4.57;;;1.83;;
2538;SDS011;1280;49.760;9.664;2022-10-22T05:59:05;4.23;;;1.83;;
2538;SDS011;1280;49.760;9.664;2022-10-22T06:01:33;8.13;;;1.60;;
2538;SDS011;1280;49.760;9.664;2022-10-22T06:04:02;5.40;;;1.57;;
2538;SDS011;1280;49.760;9.664;2022-10-22T06:06:33;8.13;;;2.00;;
2538;SDS011;1280;49.760;9.664;2022-10-22T06:09:04;3.50;;;1.57;;
2538;SDS011;1280;49.760;9.664;2022-10-22T06:11:39;3.40;;;1.30;;
2538;SDS011;1280;49.760;9.664;2022-10-22T06:14:07;5.77;;;1.50;;
2538;SDS011;1280;49.760;9.664;2022-10-22T06:16:36;5.47;;;1.60;;
2538;SDS011;1280;49.760;9.664;2022-10-22T06:19:04;4.40;;;1.80;;
2538;SDS011;1280;49.760;9.664;2022-10-22T06:21:32;6.03;;;1.50;;
2538;SDS011;1280;49.760;9.664;2022-10-22T06:24:00;5.00;;;1.60;;
2538;SDS011;1280;49.760;9.664;2022-10-22T06:26:29;5.07;;;2.13;;
2538;SDS011;1280;49.760;9.664;2022-10-22T06:28:58;3.70;;;1.33;;
2538;SDS011;1280;49.760;9.664;2022-10-22T06:31:26;4.73;;;1.70;;
2538;SDS011;1280;49.760;9.664;2022-10-22T06:34:01;6.67;;;1.90;;
2538;SDS011;1280;49.760;9.664;2022-10-22T06:36:29;8.03;;;1.80;;
2538;SDS011;1280;49.760;9.664;2022-10-22T06:38:57;4.00;;;1.43;;
2538;SDS011;1280;49.760;9.664;2022-10-22T06:41:25;4.13;;;1.50;;
2538;SDS011;1280;49.760;9.664;2022-10-22T06:43:56;4.57;;;1.70;;
2538;SDS011;1280;49.760;9.664;2022-10-22T06:46:25;5.40;;;1.60;;
2538;SDS011;1280;49.760;9.664;2022-10-22T06:48:54;3.43;;;1.50;;
2538;SDS011;1280;49.760;9.664;2022-10-22T06:51:23;4.20;;;1.77;;
2538;SDS011;1280;49.760;9.664;2022-10-22T06:53:52;5.23;;;1.60;;
2538;SDS011;1280;49.760;9.664;2022-10-22T06:56:21;4.90;;;1.80;;
2538;SDS011;1280;49.760;9.664;2022-10-22T06:58:51;5.17;;;1.50;;
2538;SDS011;1280;49.760;9.664;2022-10-22T07:01:23;4.30;;;1.50;;
2538;SDS011;1280;49.760;9.664;2022-10-22T07:03:52;3.40;;;1.37;;
2538;SDS011;1280;49.760;9.664;2022-10-22T07:06:21;6.83;;;1.83;;
2538;SDS011;1280;49.760;9.664;2022-10-22T07:08:50;3.83;;;1.47;;
2538;SDS011;1280;49.760;9.664;2022-10-22T07:11:21;4.60;;;1.20;;
2538;SDS011;1280;49.760;9.664;2022-10-22T07:13:50;3.60;;;1.40;;
2538;SDS011;1280;49.760;9.664;2022-10-22T07:16:22;3.47;;;1.33;;
2538;SDS011;1280;49.760;9.664;2022-10-22T07:18:57;5.23;;;1.23;;
2538;SDS011;1280;49.760;9.664;2022-10-22T07:21:25;6.70;;;1.40;;
2538;SDS011;1280;49.760;9.664;2022-10-22T07:23:53;4.87;;;1.23;;
2538;SDS011;1280;49.760;9.664;2022-10-22T07:26:21;4.83;;;1.23;;
2538;SDS011;1280;49.760;9.664;2022-10-22T07:28:50;3.50;;;1.33;;
2538;SDS011;1280;49.760;9.664;2022-10-22T07:31:18;6.07;;;1.70;;
2538;SDS011;1280;49.760;9.664;2022-10-22T07:33:48;3.50;;;1.17;;
2538;SDS011;1280;49.760;9.664;2022-10-22T07:36:16;7.33;;;1.40;;
2538;SDS011;1280;49.760;9.664;2022-10-22T07:38:44;4.23;;;1.50;;
2538;SDS011;1280;49.760;9.664;2022-10-22T07:41:13;4.80;;;1.30;;
2538;SDS011;1280;49.760;9.664;2022-10-22T07:43:42;3.33;;;1.23;;
2538;SDS011;1280;49.760;9.664;2022-10-22T07:46:10;4.37;;;1.20;;
2538;SDS011;1280;49.760;9.664;2022-10-22T07:48:38;12.70;;;1.50;;
2538;SDS011;1280;49.760;9.664;2022-10-22T07:51:07;4.37;;;1.30;;
2538;SDS011;1280;49.760;9.664;2022-10-22T07:53:36;4.17;;;1.23;;
2538;SDS011;1280;49.760;9.664;2022-10-22T07:56:04;4.57;;;1.20;;
2538;SDS011;1280;49.760;9.664;2022-10-22T07:58:33;4.63;;;1.37;;
2538;SDS011;1280;49.760;9.664;2022-10-22T08:01:01;5.17;;;1.40;;
2538;SDS011;1280;49.760;9.664;2022-10-22T08:03:31;3.33;;;1.23;;
2538;SDS011;1280;49.760;9.664;2022-10-22T08:06:00;3.20;;;1.17;;
2538;SDS011;1280;49.760;9.664;2022-10-22T08:08:30;8.13;;;1.30;;
2538;SDS011;1280;49.760;9.664;2022-10-22T08:10:59;10.20;;;1.50;;
2538;SDS011;1280;49.760;9.664;2022-10-22T08:13:27;4.83;;;1.20;;
2538;SDS011;1280;49.760;9.664;2022-10-22T08:15:57;7.63;;;1.47;;
2538;SDS011;1280;49.760;9.664;2022-10-22T08:18:25;7.43;;;1.37;;
2538;SDS011;1280;49.760;9.664;2022-10-22T08:20:53;6.40;;;1.33;;
2538;SDS011;1280;49.760;9.664;2022-10-22T08:23:21;5.50;;;1.13;;
2538;SDS011;1280;49.760;9.664;2022-10-22T08:25:55;4.53;;;1.10;;
2538;SDS011;1280;49.760;9.664;2022-10-22T08:28:23;2.97;;;0.87;;
2538;SDS011;1280;49.760;9.664;2022-10-22T08:30:53;6.17;;;0.90;;
2538;SDS011;1280;49.760;9.664;2022-10-22T08:33:21;3.10;;;0.80;;
2538;SDS011;1280;49.760;9.664;2022-10-22T08:35:49;3.83;;;0.67;;
2538;SDS011;1280;49.760;9.664;2022-10-22T08:38:18;4.13;;;1.10;;
2538;SDS011;1280;49.760;9.664;2022-10-22T08:40:47;3.10;;;0.90;;
2538;SDS011;1280;49.760;9.664;2022-10-22T08:46:37;4.50;;;1.10;;
2538;SDS011;1280;49.760;9.664;2022-10-22T08:49:23;4.63;;;0.93;;
2538;SDS011;1280;49.760;9.664;2022-10-22T08:51:54;4.23;;;1.10;;
2538;SDS011;1280;49.760;9.664;2022-10-22T08:54:27;3.30;;;0.97;;
2538;SDS011;1280;49.760;9.664;2022-10-22T08:57:08;3.33;;;0.80;;
2538;SDS011;1280;49.760;9.664;2022-10-22T08:59:52;4.97;;;1.10;;
2538;SDS011;1280;49.760;9.664;2022-10-22T09:02:29;5.50;;;0.93;;
2538;SDS011;1280;49.760;9.664;2022-10-22T09:05:05;5.60;;;1.70;;
2538;SDS011;1280;49.760;9.664;2022-10-22T09:07:47;4.23;;;1.10;;
2538;SDS011;1280;49.760;9.664;2022-10-22T09:10:16;6.90;;;0.97;;
2538;SDS011;1280;49.760;9.664;2022-10-22T09:12:46;4.80;;;1.17;;
2538;SDS011;1280;49.760;9.664;2022-10-22T09:15:16;6.00;;;1.30;;
2538;SDS011;1280;49.760;9.664;2022-10-22T09:17:49;4.30;;;1.23;;
2538;SDS011;1280;49.760;9.664;2022-10-22T09:20:27;3.30;;;0.97;;
2538;SDS011;1280;49.760;9.664;2022-10-22T09:23:11;3.70;;;0.97;;
2538;SDS011;1280;49.760;9.664;2022-10-22T09:25:49;3.80;;;1.00;;
2538;SDS011;1280;49.760;9.664;2022-10-22T09:28:18;3.63;;;0.90;;
2538;SDS011;1280;49.760;9.664;2022-10-22T09:30:48;4.23;;;1.10;;
2538;SDS011;1280;49.760;9.664;2022-10-22T09:33:18;4.30;;;1.00;;
2538;SDS011;1280;49.760;9.664;2022-10-22T09:35:50;6.20;;;1.03;;
2538;SDS011;1280;49.760;9.664;2022-10-22T09:38:20;7.70;;;1.37;;
2538;SDS011;1280;49.760;9.664;2022-10-22T09:40:53;4.50;;;1.00;;
2538;SDS011;1280;49.760;9.664;2022-10-22T09:43:22;5.93;;;0.90;;
2538;SDS011;1280;49.760;9.664;2022-10-22T09:45:55;4.57;;;1.37;;
2538;SDS011;1280;49.760;9.664;2022-10-22T09:48:27;4.13;;;0.80;;
2538;SDS011;1280;49.760;9.664;2022-10-22T09:50:58;3.00;;;0.93;;
2538;SDS011;1280;49.760;9.664;2022-10-22T09:53:34;4.73;;;0.77;;
2538;SDS011;1280;49.760;9.664;2022-10-22T09:56:06;5.43;;;1.03;;
2538;SDS011;1280;49.760;9.664;2022-10-22T09:58:42;5.73;;;0.80;;
2538;SDS011;1280;49.760;9.664;2022-10-22T10:01:16;4.90;;;1.30;;
2538;SDS011;1280;49.760;9.664;2022-10-22T10:03:46;7.03;;;0.90;;
2538;SDS011;1280;49.760;9.664;2022-10-22T10:06:18;5.60;;;1.07;;
2538;SDS011;1280;49.760;9.664;2022-10-22T10:08:48;5.70;;;1.40;;
2538;SDS011;1280;49.760;9.664;2022-10-22T10:11:18;4.17;;;0.80;;
2538;SDS011;1280;49.760;9.664;2022-10-22T10:14:01;4.70;;;0.80;;
2538;SDS011;1280;49.760;9.664;2022-10-22T10:16:47;3.63;;;0.83;;
2538;SDS011;1280;49.760;9.664;2022-10-22T10:19:29;6.90;;;1.00;;
2538;SDS011;1280;49.760;9.664;2022-10-22T10:22:11;3.60;;;0.83;;
2538;SDS011;1280;49.760;9.664;2022-10-22T10:24:49;2.80;;;0.60;;
2538;SDS011;1280;49.760;9.664;2022-10-22T10:27:33;3.60;;;0.87;;
2538;SDS011;1280;49.760;9.664;2022-10-22T10:30:08;3.90;;;0.63;;
2538;SDS011;1280;49.760;9.664;2022-10-22T10:32:50;3.83;;;0.60;;
2538;SDS011;1280;49.760;9.664;2022-10-22T10:35:29;3.80;;;0.93;;
2538;SDS011;1280;49.760;9.664;2022-10-22T10:38:09;5.40;;;2.80;;
2538;SDS011;1280;49.760;9.664;2022-10-22T10:40:54;4.80;;;3.07;;
2538;SDS011;1280;49.760;9.664;2022-10-22T10:43:28;13.80;;;12.03;;
2538;SDS011;1280;49.760;9.664;2022-10-22T10:46:06;10.13;;;9.10;;
2538;SDS011;1280;49.760;9.664;2022-10-22T10:48:49;4.77;;;2.93;;
2538;SDS011;1280;49.760;9.664;2022-10-22T10:51:30;3.73;;;1.37;;
2538;SDS011;1280;49.760;9.664;2022-10-22T10:56:55;3.50;;;1.20;;
2538;SDS011;1280;49.760;9.664;2022-10-22T10:59:28;3.63;;;1.53;;
2538;SDS011;1280;49.760;9.664;2022-10-22T11:02:12;4.67;;;1.30;;
2538;SDS011;1280;49.760;9.664;2022-10-22T11:05:00;4.50;;;1.00;;
2538;SDS011;1280;49.760;9.664;2022-10-22T11:07:45;4.23;;;1.10;;
2538;SDS011;1280;49.760;9.664;2022-10-22T11:10:23;4.97;;;1.00;;
2538;SDS011;1280;49.760;9.664;2022-10-22T11:12:56;5.10;;;1.03;;
2538;SDS011;1280;49.760;9.664;2022-10-22T11:15:30;5.00;;;1.17;;
2538;SDS011;1280;49.760;9.664;2022-10-22T11:18:02;5.63;;;2.60;;
2538;SDS011;1280;49.760;9.664;2022-10-22T11:20:42;5.77;;;2.00;;
2538;SDS011;1280;49.760;9.664;2022-10-22T11:23:17;7.33;;;1.87;;
2538;SDS011;1280;49.760;9.664;2022-10-22T11:25:51;6.20;;;0.93;;
2538;SDS011;1280;49.760;9.664;2022-10-22T11:28:20;4.00;;;1.33;;
2538;SDS011;1280;49.760;9.664;2022-10-22T11:30:53;5.23;;;1.00;;
2538;SDS011;1280;49.760;9.664;2022-10-22T11:33:30;3.50;;;0.90;;
2538;SDS011;1280;49.760;9.664;2022-10-22T11:36:05;5.90;;;0.80;;
2538;SDS011;1280;49.760;9.664;2022-10-22T11:38:34;9.37;;;5.07;;
2538;SDS011;1280;49.760;9.664;2022-10-22T11:41:04;5.53;;;1.40;;
2538;SDS011;1280;49.760;9.664;2022-10-22T11:43:50;5.73;;;1.20;;
2538;SDS011;1280;49.760;9.664;2022-10-22T11:46:28;9.20;;;1.43;;
2538;SDS011;1280;49.760;9.664;2022-10-22T11:49:03;4.03;;;1.00;;
2538;SDS011;1280;49.760;9.664;2022-10-22T11:51:44;4.77;;;1.10;;
2538;SDS011;1280;49.760;9.664;2022-10-22T11:57:21;3.50;;;1.10;;
2538;SDS011;1280;49.760;9.664;2022-10-22T11:59:55;20.27;;;4.23;;
2538;SDS011;1280;49.760;9.664;2022-10-22T12:02:36;10.60;;;3.30;;
2538;SDS011;1280;49.760;9.664;2022-10-22T12:08:13;4.60;;;1.53;;
2538;SDS011;1280;49.760;9.664;2022-10-22T12:10:54;8.40;;;1.70;;
2538;SDS011;1280;49.760;9.664;2022-10-22T12:13:32;7.30;;;2.23;;
2538;SDS011;1280;49.760;9.664;2022-10-22T12:16:17;5.30;;;1.43;;
2538;SDS011;1280;49.760;9.664;2022-10-22T12:19:11;5.73;;;2.20;;
2538;SDS011;1280;49.760;9.664;2022-10-22T12:21:43;4.20;;;1.37;;
2538;SDS011;1280;49.760;9.664;2022-10-22T12:24:18;20.93;;;5.87;;
2538;SDS011;1280;49.760;9.664;2022-10-22T12:26:48;5.17;;;2.07;;
2538;SDS011;1280;49.760;9.664;2022-10-22T12:29:19;8.63;;;2.00;;
2538;SDS011;1280;49.760;9.664;2022-10-22T12:31:51;7.97;;;2.03;;
2538;SDS011;1280;49.760;9.664;2022-10-22T12:34:21;4.27;;;1.20;;
2538;SDS011;1280;49.760;9.664;2022-10-22T12:36:51;5.73;;;2.60;;
2538;SDS011;1280;49.760;9.664;2022-10-22T12:39:24;3.40;;;1.20;;
2538;SDS011;1280;49.760;9.664;2022-10-22T12:41:53;4.93;;;1.57;;
2538;SDS011;1280;49.760;9.664;2022-10-22T12:44:21;5.10;;;1.20;;
2538;SDS011;1280;49.760;9.664;2022-10-22T12:46:49;5.50;;;1.43;;
2538;SDS011;1280;49.760;9.664;2022-10-22T12:49:24;13.67;;;3.43;;
2538;SDS011;1280;49.760;9.664;2022-10-22T12:51:59;6.97;;;1.83;;
2538;SDS011;1280;49.760;9.664;2022-10-22T12:54:32;10.20;;;2.30;;
2538;SDS011;1280;49.760;9.664;2022-10-22T12:57:01;5.30;;;1.60;;
2538;SDS011;1280;49.760;9.664;2022-10-22T12:59:29;4.90;;;1.33;;
2538;SDS011;1280;49.760;9.664;2022-10-22T13:02:00;3.63;;;1.30;;
2538;SDS011;1280;49.760;9.664;2022-10-22T13:04:36;5.00;;;2.20;;
2538;SDS011;1280;49.760;9.664;2022-10-22T13:07:13;3.47;;;1.33;;
2538;SDS011;1280;49.760;9.664;2022-10-22T13:09:56;3.50;;;0.80;;
2538;SDS011;1280;49.760;9.664;2022-10-22T13:12:25;5.43;;;1.10;;
2538;SDS011;1280;49.760;9.664;2022-10-22T13:14:54;4.40;;;0.97;;
2538;SDS011;1280;49.760;9.664;2022-10-22T13:17:36;4.53;;;0.77;;
2538;SDS011;1280;49.760;9.664;2022-10-22T13:20:14;5.70;;;1.10;;
2538;SDS011;1280;49.760;9.664;2022-10-22T13:25:33;4.73;;;0.80;;
2538;SDS011;1280;49.760;9.664;2022-10-22T13:28:15;7.63;;;1.10;;
2538;SDS011;1280;49.760;9.664;2022-10-22T13:30:50;5.47;;;1.00;;
2538;SDS011;1280;49.760;9.664;2022-10-22T13:33:21;7.13;;;1.23;;
2538;SDS011;1280;49.760;9.664;2022-10-22T13:35:52;4.87;;;1.57;;
2538;SDS011;1280;49.760;9.664;2022-10-22T13:38:22;4.97;;;0.77;;
2538;SDS011;1280;49.760;9.664;2022-10-22T13:40:52;4.13;;;0.70;;
2538;SDS011;1280;49.760;9.664;2022-10-22T13:43:21;9.23;;;1.50;;
2538;SDS011;1280;49.760;9.664;2022-10-22T13:45:51;6.43;;;1.00;;
2538;SDS011;1280;49.760;9.664;2022-10-22T13:48:21;5.80;;;0.87;;
2538;SDS011;1280;49.760;9.664;2022-10-22T13:50:51;7.10;;;1.07;;
2538;SDS011;1280;49.760;9.664;2022-10-22T13:53:20;4.10;;;1.10;;
2538;SDS011;1280;49.760;9.664;2022-10-22T13:55:51;5.83;;;1.43;;
2538;SDS011;1280;49.760;9.664;2022-10-22T13:58:20;9.77;;;1.37;;
2538;SDS011;1280;49.760;9.664;2022-10-22T14:00:50;3.83;;;0.87;;
2538;SDS011;1280;49.760;9.664;2022-10-22T14:03:21;5.27;;;0.90;;
2538;SDS011;1280;49.760;9.664;2022-10-22T14:05:52;6.70;;;1.07;;
2538;SDS011;1280;49.760;9.664;2022-10-22T14:08:21;6.03;;;1.07;;
2538;SDS011;1280;49.760;9.664;2022-10-22T14:10:52;5.23;;;1.10;;
2538;SDS011;1280;49.760;9.664;2022-10-22T14:13:20;6.10;;;1.00;;
2538;SDS011;1280;49.760;9.664;2022-10-22T14:15:49;5.13;;;0.90;;
2538;SDS011;1280;49.760;9.664;2022-10-22T14:18:19;4.13;;;0.90;;
2538;SDS011;1280;49.760;9.664;2022-10-22T14:20:52;5.33;;;1.00;;
2538;SDS011;1280;49.760;9.664;2022-10-22T14:23:23;13.17;;;1.47;;
2538;SDS011;1280;49.760;9.664;2022-10-22T14:25:54;4.50;;;0.80;;
2538;SDS011;1280;49.760;9.664;2022-10-22T14:28:23;5.60;;;1.37;;
2538;SDS011;1280;49.760;9.664;2022-10-22T14:30:51;4.97;;;1.20;;
2538;SDS011;1280;49.760;9.664;2022-10-22T14:33:20;7.03;;;1.10;;
2538;SDS011;1280;49.760;9.664;2022-10-22T14:35:57;7.03;;;1.13;;
2538;SDS011;1280;49.760;9.664;2022-10-22T14:38:25;3.97;;;1.00;;
2538;SDS011;1280;49.760;9.664;2022-10-22T14:40:55;4.60;;;1.20;;
2538;SDS011;1280;49.760;9.664;2022-10-22T14:43:24;12.20;;;1.40;;
2538;SDS011;1280;49.760;9.664;2022-10-22T14:45:53;3.67;;;1.20;;
2538;SDS011;1280;49.760;9.664;2022-10-22T14:48:22;7.20;;;1.10;;
2538;SDS011;1280;49.760;9.664;2022-10-22T14:50:50;3.57;;;1.00;;
2538;SDS011;1280;49.760;9.664;2022-10-22T14:53:18;5.20;;;1.00;;
2538;SDS011;1280;49.760;9.664;2022-10-22T14:55:46;4.13;;;0.83;;
2538;SDS011;1280;49.760;9.664;2022-10-22T14:58:15;6.90;;;1.10;;
2538;SDS011;1280;49.760;9.664;2022-10-22T15:00:43;4.67;;;1.30;;
2538;SDS011;1280;49.760;9.664;2022-10-22T15:03:11;4.03;;;1.03;;
2538;SDS011;1280;49.760;9.664;2022-10-22T15:05:39;4.60;;;1.13;;
2538;SDS011;1280;49.760;9.664;2022-10-22T15:08:10;8.40;;;1.30;;
2538;SDS011;1280;49.760;9.664;2022-10-22T15:10:39;7.33;;;1.00;;
2538;SDS011;1280;49.760;9.664;2022-10-22T15:13:07;6.43;;;1.07;;
2538;SDS011;1280;49.760;9.664;2022-10-22T15:15:38;6.90;;;1.30;;
2538;SDS011;1280;49.760;9.664;2022-10-22T15:18:06;5.40;;;1.00;;
2538;SDS011;1280;49.760;9.664;2022-10-22T15:20:34;4.50;;;1.27;;
2538;SDS011;1280;49.760;9.664;2022-10-22T15:23:02;4.90;;;1.27;;
2538;SDS011;1280;49.760;9.664;2022-10-22T15:25:30;5.10;;;1.13;;
2538;SDS011;1280;49.760;9.664;2022-10-22T15:27:58;5.93;;;1.00;;
2538;SDS011;1280;49.760;9.664;2022-10-22T15:30:36;3.70;;;0.90;;
2538;SDS011;1280;49.760;9.664;2022-10-22T15:33:04;6.90;;;0.90;;
2538;SDS011;1280;49.760;9.664;2022-10-22T15:35:32;4.47;;;0.80;;
2538;SDS011;1280;49.760;9.664;2022-10-22T15:38:00;5.10;;;1.37;;
2538;SDS011;1280;49.760;9.664;2022-10-22T15:40:31;9.50;;;1.10;;
2538;SDS011;1280;49.760;9.664;2022-10-22T15:42:59;23.07;;;1.57;;
2538;SDS011;1280;49.760;9.664;2022-10-22T15:45:27;6.60;;;1.40;;
2538;SDS011;1280;49.760;9.664;2022-10-22T15:47:56;6.20;;;1.17;;
2538;SDS011;1280;49.760;9.664;2022-10-22T15:50:25;5.53;;;1.63;;
2538;SDS011;1280;49.760;9.664;2022-10-22T15:52:53;5.03;;;1.00;;
2538;SDS011;1280;49.760;9.664;2022-10-22T15:55:21;4.83;;;1.13;;